sensor_id;sensor_type;location;lat;lon;timestamp;P1;durP1;ratioP1;P2;durP2;ratioP2
18144;SDS011;14857;41.200;-8.326;2022-08-19T00:02:13;7.05;;;3.00;;
18144;SDS011;14857;41.200;-8.326;2022-08-19T00:04:48;13.70;;;4.90;;
18144;SDS011;14857;41.200;-8.326;2022-08-19T00:08:04;7.47;;;3.47;;
18144;SDS011;14857;41.200;-8.326;2022-08-19T00:10:32;5.85;;;2.83;;
18144;SDS011;14857;41.200;-8.326;2022-08-19T00:13:01;7.93;;;3.20;;
18144;SDS011;14857;41.200;-8.326;2022-08-19T00:15:30;9.90;;;3.45;;
18144;SDS011;14857;41.200;-8.326;2022-08-19T00:18:01;15.95;;;3.08;;
18144;SDS011;14857;41.200;-8.326;2022-08-19T00:20:35;7.93;;;2.83;;
18144;SDS011;14857;41.200;-8.326;2022-08-19T00:23:07;10.10;;;3.20;;
18144;SDS011;14857;41.200;-8.326;2022-08-19T00:25:36;9.15;;;3.53;;
18144;SDS011;14857;41.200;-8.326;2022-08-19T00:28:05;5.05;;;3.05;;
18144;SDS011;14857;41.200;-8.326;2022-08-19T00:30:33;9.15;;;3.30;;
18144;SDS011;14857;41.200;-8.326;2022-08-19T00:33:09;7.70;;;3.58;;
18144;SDS011;14857;41.200;-8.326;2022-08-19T00:35:38;5.57;;;2.95;;
18144;SDS011;14857;41.200;-8.326;2022-08-19T00:38:07;8.88;;;3.47;;
18144;SDS011;14857;41.200;-8.326;2022-08-19T00:40:35;14.25;;;3.50;;
18144;SDS011;14857;41.200;-8.326;2022-08-19T00:43:11;9.45;;;3.45;;
18144;SDS011;14857;41.200;-8.326;2022-08-19T00:45:40;13.70;;;3.97;;
18144;SDS011;14857;41.200;-8.326;2022-08-19T00:48:12;11.38;;;4.15;;
18144;SDS011;14857;41.200;-8.326;2022-08-19T00:51:01;10.82;;;3.33;;
18144;SDS011;14857;41.200;-8.326;2022-08-19T00:53:30;8.27;;;3.35;;
18144;SDS011;14857;41.200;-8.326;2022-08-19T00:56:01;10.02;;;3.80;;
18144;SDS011;14857;41.200;-8.326;2022-08-19T00:58:33;7.60;;;3.22;;
18144;SDS011;14857;41.200;-8.326;2022-08-19T01:01:03;7.15;;;3.65;;
18144;SDS011;14857;41.200;-8.326;2022-08-19T01:03:35;9.63;;;3.47;;
18144;SDS011;14857;41.200;-8.326;2022-08-19T01:06:24;7.25;;;3.33;;
18144;SDS011;14857;41.200;-8.326;2022-08-19T01:08:56;7.97;;;3.22;;
18144;SDS011;14857;41.200;-8.326;2022-08-19T01:11:25;8.73;;;3.17;;
18144;SDS011;14857;41.200;-8.326;2022-08-19T01:13:55;6.18;;;3.08;;
18144;SDS011;14857;41.200;-8.326;2022-08-19T01:16:25;7.25;;;3.58;;
18144;SDS011;14857;41.200;-8.326;2022-08-19T01:18:57;9.85;;;3.45;;
18144;SDS011;14857;41.200;-8.326;2022-08-19T01:21:27;6.75;;;2.75;;
18144;SDS011;14857;41.200;-8.326;2022-08-19T01:24:02;8.50;;;3.58;;
18144;SDS011;14857;41.200;-8.326;2022-08-19T01:26:38;7.13;;;3.28;;
18144;SDS011;14857;41.200;-8.326;2022-08-19T01:29:09;6.18;;;3.25;;
18144;SDS011;14857;41.200;-8.326;2022-08-19T01:31:40;7.45;;;2.85;;
18144;SDS011;14857;41.200;-8.326;2022-08-19T01:37:08;10.05;;;3.60;;
18144;SDS011;14857;41.200;-8.326;2022-08-19T01:39:40;6.15;;;2.85;;
18144;SDS011;14857;41.200;-8.326;2022-08-19T01:42:09;7.95;;;3.40;;
18144;SDS011;14857;41.200;-8.326;2022-08-19T01:44:39;7.88;;;3.75;;
18144;SDS011;14857;41.200;-8.326;2022-08-19T01:47:08;7.80;;;3.30;;
18144;SDS011;14857;41.200;-8.326;2022-08-19T01:49:37;5.95;;;3.50;;
18144;SDS011;14857;41.200;-8.326;2022-08-19T01:52:06;9.68;;;3.47;;
18144;SDS011;14857;41.200;-8.326;2022-08-19T01:54:35;7.80;;;3.65;;
18144;SDS011;14857;41.200;-8.326;2022-08-19T01:57:06;10.10;;;3.28;;
18144;SDS011;14857;41.200;-8.326;2022-08-19T01:59:50;9.90;;;3.10;;
18144;SDS011;14857;41.200;-8.326;2022-08-19T02:02:18;6.13;;;2.97;;
18144;SDS011;14857;41.200;-8.326;2022-08-19T02:04:48;5.40;;;2.72;;
18144;SDS011;14857;41.200;-8.326;2022-08-19T02:07:18;7.60;;;2.97;;
18144;SDS011;14857;41.200;-8.326;2022-08-19T02:09:48;8.63;;;2.88;;
18144;SDS011;14857;41.200;-8.326;2022-08-19T02:12:18;9.85;;;3.17;;
18144;SDS011;14857;41.200;-8.326;2022-08-19T02:14:47;6.05;;;3.30;;
18144;SDS011;14857;41.200;-8.326;2022-08-19T02:17:16;11.00;;;3.10;;
18144;SDS011;14857;41.200;-8.326;2022-08-19T02:19:45;6.53;;;2.90;;
18144;SDS011;14857;41.200;-8.326;2022-08-19T02:22:15;9.27;;;3.33;;
18144;SDS011;14857;41.200;-8.326;2022-08-19T02:24:44;6.82;;;2.92;;
18144;SDS011;14857;41.200;-8.326;2022-08-19T02:27:13;9.15;;;3.13;;
18144;SDS011;14857;41.200;-8.326;2022-08-19T02:29:43;11.68;;;2.97;;
18144;SDS011;14857;41.200;-8.326;2022-08-19T02:32:13;14.35;;;3.22;;
18144;SDS011;14857;41.200;-8.326;2022-08-19T02:34:46;6.55;;;2.70;;
18144;SDS011;14857;41.200;-8.326;2022-08-19T02:37:20;4.75;;;3.03;;
18144;SDS011;14857;41.200;-8.326;2022-08-19T02:40:07;7.95;;;2.60;;
18144;SDS011;14857;41.200;-8.326;2022-08-19T02:42:38;5.90;;;3.00;;
18144;SDS011;14857;41.200;-8.326;2022-08-19T02:45:09;6.68;;;3.03;;
18144;SDS011;14857;41.200;-8.326;2022-08-19T02:47:38;5.43;;;2.50;;
18144;SDS011;14857;41.200;-8.326;2022-08-19T02:50:07;7.57;;;2.83;;
18144;SDS011;14857;41.200;-8.326;2022-08-19T02:52:36;5.03;;;2.92;;
18144;SDS011;14857;41.200;-8.326;2022-08-19T02:55:05;8.43;;;2.63;;
18144;SDS011;14857;41.200;-8.326;2022-08-19T02:57:35;9.88;;;2.58;;
18144;SDS011;14857;41.200;-8.326;2022-08-19T03:00:04;5.53;;;2.47;;
18144;SDS011;14857;41.200;-8.326;2022-08-19T03:02:35;5.50;;;2.92;;
18144;SDS011;14857;41.200;-8.326;2022-08-19T03:05:05;8.38;;;3.13;;
18144;SDS011;14857;41.200;-8.326;2022-08-19T03:07:36;9.27;;;4.00;;
18144;SDS011;14857;41.200;-8.326;2022-08-19T03:10:05;8.20;;;3.25;;
18144;SDS011;14857;41.200;-8.326;2022-08-19T03:12:35;4.63;;;2.67;;
18144;SDS011;14857;41.200;-8.326;2022-08-19T03:15:06;5.47;;;3.13;;
18144;SDS011;14857;41.200;-8.326;2022-08-19T03:17:37;6.47;;;3.00;;
18144;SDS011;14857;41.200;-8.326;2022-08-19T03:20:06;5.80;;;2.97;;
18144;SDS011;14857;41.200;-8.326;2022-08-19T03:22:40;5.07;;;2.90;;
18144;SDS011;14857;41.200;-8.326;2022-08-19T03:25:09;6.32;;;2.83;;
18144;SDS011;14857;41.200;-8.326;2022-08-19T03:27:38;5.18;;;2.90;;
18144;SDS011;14857;41.200;-8.326;2022-08-19T03:30:07;5.47;;;2.88;;
18144;SDS011;14857;41.200;-8.326;2022-08-19T03:32:39;11.30;;;2.65;;
18144;SDS011;14857;41.200;-8.326;2022-08-19T03:35:11;7.88;;;3.33;;
18144;SDS011;14857;41.200;-8.326;2022-08-19T03:37:40;4.60;;;2.45;;
18144;SDS011;14857;41.200;-8.326;2022-08-19T03:40:09;10.77;;;2.67;;
18144;SDS011;14857;41.200;-8.326;2022-08-19T03:42:42;5.78;;;2.90;;
18144;SDS011;14857;41.200;-8.326;2022-08-19T03:45:15;7.50;;;3.47;;
18144;SDS011;14857;41.200;-8.326;2022-08-19T03:47:45;10.00;;;2.83;;
18144;SDS011;14857;41.200;-8.326;2022-08-19T03:50:14;5.63;;;2.75;;
18144;SDS011;14857;41.200;-8.326;2022-08-19T03:52:44;8.43;;;3.20;;
18144;SDS011;14857;41.200;-8.326;2022-08-19T03:55:17;7.45;;;2.83;;
18144;SDS011;14857;41.200;-8.326;2022-08-19T03:57:46;5.43;;;3.03;;
18144;SDS011;14857;41.200;-8.326;2022-08-19T04:00:15;6.72;;;3.33;;
18144;SDS011;14857;41.200;-8.326;2022-08-19T04:05:48;6.68;;;2.50;;
18144;SDS011;14857;41.200;-8.326;2022-08-19T04:08:17;7.43;;;3.22;;
18144;SDS011;14857;41.200;-8.326;2022-08-19T04:10:47;5.75;;;2.55;;
18144;SDS011;14857;41.200;-8.326;2022-08-19T04:13:17;7.35;;;2.80;;
18144;SDS011;14857;41.200;-8.326;2022-08-19T04:15:46;7.25;;;2.50;;
18144;SDS011;14857;41.200;-8.326;2022-08-19T04:18:15;5.38;;;2.78;;
18144;SDS011;14857;41.200;-8.326;2022-08-19T04:20:45;5.10;;;2.42;;
18144;SDS011;14857;41.200;-8.326;2022-08-19T04:23:17;5.93;;;2.35;;
18144;SDS011;14857;41.200;-8.326;2022-08-19T04:25:46;7.32;;;2.60;;
18144;SDS011;14857;41.200;-8.326;2022-08-19T04:28:15;4.97;;;2.65;;
18144;SDS011;14857;41.200;-8.326;2022-08-19T04:30:45;7.70;;;3.00;;
18144;SDS011;14857;41.200;-8.326;2022-08-19T04:33:16;9.48;;;3.05;;
18144;SDS011;14857;41.200;-8.326;2022-08-19T04:35:54;6.20;;;2.75;;
18144;SDS011;14857;41.200;-8.326;2022-08-19T04:38:26;8.57;;;2.83;;
18144;SDS011;14857;41.200;-8.326;2022-08-19T04:40:54;7.70;;;2.88;;
18144;SDS011;14857;41.200;-8.326;2022-08-19T04:43:41;5.00;;;2.47;;
18144;SDS011;14857;41.200;-8.326;2022-08-19T04:46:15;4.38;;;2.38;;
18144;SDS011;14857;41.200;-8.326;2022-08-19T04:49:05;8.35;;;3.40;;
18144;SDS011;14857;41.200;-8.326;2022-08-19T04:51:40;7.75;;;2.80;;
18144;SDS011;14857;41.200;-8.326;2022-08-19T04:54:11;11.98;;;2.83;;
18144;SDS011;14857;41.200;-8.326;2022-08-19T04:56:44;8.30;;;2.53;;
18144;SDS011;14857;41.200;-8.326;2022-08-19T04:59:13;5.50;;;2.88;;
18144;SDS011;14857;41.200;-8.326;2022-08-19T05:01:42;4.72;;;2.75;;
18144;SDS011;14857;41.200;-8.326;2022-08-19T05:04:17;4.85;;;2.97;;
18144;SDS011;14857;41.200;-8.326;2022-08-19T05:06:48;11.13;;;3.53;;
18144;SDS011;14857;41.200;-8.326;2022-08-19T05:09:18;5.78;;;2.90;;
18144;SDS011;14857;41.200;-8.326;2022-08-19T05:11:48;5.10;;;3.13;;
18144;SDS011;14857;41.200;-8.326;2022-08-19T05:14:19;6.30;;;3.00;;
18144;SDS011;14857;41.200;-8.326;2022-08-19T05:16:48;8.40;;;2.97;;
18144;SDS011;14857;41.200;-8.326;2022-08-19T05:19:37;5.40;;;2.65;;
18144;SDS011;14857;41.200;-8.326;2022-08-19T05:22:23;5.80;;;3.08;;
18144;SDS011;14857;41.200;-8.326;2022-08-19T05:25:04;7.00;;;2.90;;
18144;SDS011;14857;41.200;-8.326;2022-08-19T05:27:39;5.75;;;3.00;;
18144;SDS011;14857;41.200;-8.326;2022-08-19T05:30:08;5.93;;;3.03;;
18144;SDS011;14857;41.200;-8.326;2022-08-19T05:32:37;7.85;;;2.78;;
18144;SDS011;14857;41.200;-8.326;2022-08-19T05:35:07;5.22;;;3.00;;
18144;SDS011;14857;41.200;-8.326;2022-08-19T05:37:37;4.97;;;2.67;;
18144;SDS011;14857;41.200;-8.326;2022-08-19T05:40:09;5.20;;;2.75;;
18144;SDS011;14857;41.200;-8.326;2022-08-19T05:42:38;6.38;;;3.05;;
18144;SDS011;14857;41.200;-8.326;2022-08-19T05:45:07;6.70;;;2.90;;
18144;SDS011;14857;41.200;-8.326;2022-08-19T05:47:39;5.75;;;2.40;;
18144;SDS011;14857;41.200;-8.326;2022-08-19T05:50:08;6.35;;;2.63;;
18144;SDS011;14857;41.200;-8.326;2022-08-19T05:52:37;10.98;;;2.63;;
18144;SDS011;14857;41.200;-8.326;2022-08-19T05:55:17;3.53;;;2.15;;
18144;SDS011;14857;41.200;-8.326;2022-08-19T05:57:50;4.53;;;2.60;;
18144;SDS011;14857;41.200;-8.326;2022-08-19T06:00:19;5.88;;;2.67;;
18144;SDS011;14857;41.200;-8.326;2022-08-19T06:02:50;8.52;;;2.38;;
18144;SDS011;14857;41.200;-8.326;2022-08-19T06:05:19;11.80;;;3.22;;
18144;SDS011;14857;41.200;-8.326;2022-08-19T06:07:48;8.23;;;2.97;;
18144;SDS011;14857;41.200;-8.326;2022-08-19T06:10:18;3.63;;;2.25;;
18144;SDS011;14857;41.200;-8.326;2022-08-19T06:12:47;6.28;;;2.70;;
18144;SDS011;14857;41.200;-8.326;2022-08-19T06:15:16;5.18;;;2.90;;
18144;SDS011;14857;41.200;-8.326;2022-08-19T06:17:44;8.98;;;2.63;;
18144;SDS011;14857;41.200;-8.326;2022-08-19T06:20:14;4.95;;;2.88;;
18144;SDS011;14857;41.200;-8.326;2022-08-19T06:23:04;4.65;;;2.20;;
18144;SDS011;14857;41.200;-8.326;2022-08-19T06:25:34;4.22;;;2.30;;
18144;SDS011;14857;41.200;-8.326;2022-08-19T06:28:03;4.80;;;2.15;;
18144;SDS011;14857;41.200;-8.326;2022-08-19T06:30:41;5.53;;;2.78;;
18144;SDS011;14857;41.200;-8.326;2022-08-19T06:33:10;4.10;;;2.30;;
18144;SDS011;14857;41.200;-8.326;2022-08-19T06:35:38;3.88;;;2.33;;
18144;SDS011;14857;41.200;-8.326;2022-08-19T06:38:07;8.27;;;2.72;;
18144;SDS011;14857;41.200;-8.326;2022-08-19T06:40:38;7.15;;;2.75;;
18144;SDS011;14857;41.200;-8.326;2022-08-19T06:43:06;5.95;;;2.45;;
18144;SDS011;14857;41.200;-8.326;2022-08-19T06:45:36;5.22;;;2.47;;
18144;SDS011;14857;41.200;-8.326;2022-08-19T06:48:05;6.55;;;2.50;;
18144;SDS011;14857;41.200;-8.326;2022-08-19T06:50:34;3.75;;;2.05;;
18144;SDS011;14857;41.200;-8.326;2022-08-19T06:53:06;3.90;;;2.10;;
18144;SDS011;14857;41.200;-8.326;2022-08-19T06:55:35;2.88;;;2.03;;
18144;SDS011;14857;41.200;-8.326;2022-08-19T06:58:05;5.28;;;2.33;;
18144;SDS011;14857;41.200;-8.326;2022-08-19T07:00:34;6.25;;;2.20;;
18144;SDS011;14857;41.200;-8.326;2022-08-19T07:03:03;5.97;;;2.60;;
18144;SDS011;14857;41.200;-8.326;2022-08-19T07:05:38;3.25;;;2.30;;
18144;SDS011;14857;41.200;-8.326;2022-08-19T07:08:11;5.68;;;1.98;;
18144;SDS011;14857;41.200;-8.326;2022-08-19T07:10:42;5.05;;;2.40;;
18144;SDS011;14857;41.200;-8.326;2022-08-19T07:13:13;5.47;;;2.10;;
18144;SDS011;14857;41.200;-8.326;2022-08-19T07:15:41;5.72;;;2.20;;
18144;SDS011;14857;41.200;-8.326;2022-08-19T07:18:13;5.88;;;2.80;;
18144;SDS011;14857;41.200;-8.326;2022-08-19T07:20:42;5.00;;;2.70;;
18144;SDS011;14857;41.200;-8.326;2022-08-19T07:23:11;4.07;;;2.35;;
18144;SDS011;14857;41.200;-8.326;2022-08-19T07:25:44;8.20;;;2.40;;
18144;SDS011;14857;41.200;-8.326;2022-08-19T07:28:20;4.93;;;2.40;;
18144;SDS011;14857;41.200;-8.326;2022-08-19T07:30:53;2.83;;;1.90;;
18144;SDS011;14857;41.200;-8.326;2022-08-19T07:33:22;5.03;;;2.20;;
18144;SDS011;14857;41.200;-8.326;2022-08-19T07:35:53;3.60;;;2.10;;
18144;SDS011;14857;41.200;-8.326;2022-08-19T07:38:22;3.83;;;2.35;;
18144;SDS011;14857;41.200;-8.326;2022-08-19T07:40:51;4.65;;;2.30;;
18144;SDS011;14857;41.200;-8.326;2022-08-19T07:43:22;9.48;;;2.10;;
18144;SDS011;14857;41.200;-8.326;2022-08-19T07:46:01;6.85;;;2.40;;
18144;SDS011;14857;41.200;-8.326;2022-08-19T07:48:29;5.22;;;2.30;;
18144;SDS011;14857;41.200;-8.326;2022-08-19T07:51:02;8.30;;;2.58;;
18144;SDS011;14857;41.200;-8.326;2022-08-19T07:53:35;7.05;;;2.83;;
18144;SDS011;14857;41.200;-8.326;2022-08-19T07:56:05;5.18;;;3.00;;
18144;SDS011;14857;41.200;-8.326;2022-08-19T07:58:38;9.93;;;2.25;;
18144;SDS011;14857;41.200;-8.326;2022-08-19T08:01:09;6.30;;;2.58;;
18144;SDS011;14857;41.200;-8.326;2022-08-19T08:03:40;7.53;;;2.50;;
18144;SDS011;14857;41.200;-8.326;2022-08-19T08:06:26;7.47;;;2.35;;
18144;SDS011;14857;41.200;-8.326;2022-08-19T08:09:17;6.03;;;2.40;;
18144;SDS011;14857;41.200;-8.326;2022-08-19T08:11:50;10.93;;;2.58;;
18144;SDS011;14857;41.200;-8.326;2022-08-19T08:14:32;6.00;;;2.30;;
18144;SDS011;14857;41.200;-8.326;2022-08-19T08:17:10;6.35;;;2.65;;
18144;SDS011;14857;41.200;-8.326;2022-08-19T08:19:40;8.93;;;2.45;;
18144;SDS011;14857;41.200;-8.326;2022-08-19T08:22:09;3.80;;;2.10;;
18144;SDS011;14857;41.200;-8.326;2022-08-19T08:25:01;6.20;;;1.55;;
18144;SDS011;14857;41.200;-8.326;2022-08-19T08:27:34;7.55;;;2.13;;
18144;SDS011;14857;41.200;-8.326;2022-08-19T08:30:08;9.60;;;1.80;;
18144;SDS011;14857;41.200;-8.326;2022-08-19T08:32:39;3.05;;;1.40;;
18144;SDS011;14857;41.200;-8.326;2022-08-19T08:35:11;3.15;;;1.25;;
18144;SDS011;14857;41.200;-8.326;2022-08-19T08:37:42;5.55;;;1.50;;
18144;SDS011;14857;41.200;-8.326;2022-08-19T08:40:14;5.68;;;1.17;;
18144;SDS011;14857;41.200;-8.326;2022-08-19T08:42:48;3.67;;;1.05;;
18144;SDS011;14857;41.200;-8.326;2022-08-19T08:45:34;1.60;;;0.90;;
18144;SDS011;14857;41.200;-8.326;2022-08-19T08:48:12;4.40;;;1.50;;
18144;SDS011;14857;41.200;-8.326;2022-08-19T08:50:50;3.95;;;1.17;;
18144;SDS011;14857;41.200;-8.326;2022-08-19T08:53:22;3.10;;;1.42;;
18144;SDS011;14857;41.200;-8.326;2022-08-19T08:55:57;2.53;;;1.35;;
18144;SDS011;14857;41.200;-8.326;2022-08-19T08:58:31;1.45;;;1.10;;
18144;SDS011;14857;41.200;-8.326;2022-08-19T09:01:14;4.32;;;1.70;;
18144;SDS011;14857;41.200;-8.326;2022-08-19T09:03:43;3.05;;;1.10;;
18144;SDS011;14857;41.200;-8.326;2022-08-19T09:06:14;4.47;;;1.48;;
18144;SDS011;14857;41.200;-8.326;2022-08-19T09:08:55;2.70;;;1.17;;
18144;SDS011;14857;41.200;-8.326;2022-08-19T09:11:47;2.13;;;1.30;;
18144;SDS011;14857;41.200;-8.326;2022-08-19T09:14:32;1.55;;;1.10;;
18144;SDS011;14857;41.200;-8.326;2022-08-19T09:17:19;3.33;;;1.00;;
18144;SDS011;14857;41.200;-8.326;2022-08-19T09:19:58;5.47;;;1.40;;
18144;SDS011;14857;41.200;-8.326;2022-08-19T09:22:34;2.92;;;1.30;;
18144;SDS011;14857;41.200;-8.326;2022-08-19T09:25:06;3.58;;;1.20;;
18144;SDS011;14857;41.200;-8.326;2022-08-19T09:27:37;3.17;;;1.05;;
18144;SDS011;14857;41.200;-8.326;2022-08-19T09:30:11;3.90;;;1.40;;
18144;SDS011;14857;41.200;-8.326;2022-08-19T09:32:59;3.15;;;1.05;;
18144;SDS011;14857;41.200;-8.326;2022-08-19T09:35:29;1.58;;;0.80;;
18144;SDS011;14857;41.200;-8.326;2022-08-19T09:38:15;3.13;;;1.00;;
18144;SDS011;14857;41.200;-8.326;2022-08-19T09:40:44;1.35;;;0.90;;
18144;SDS011;14857;41.200;-8.326;2022-08-19T09:43:13;4.35;;;1.05;;
18144;SDS011;14857;41.200;-8.326;2022-08-19T09:46:05;1.73;;;0.95;;
18144;SDS011;14857;41.200;-8.326;2022-08-19T09:48:40;4.40;;;0.90;;
18144;SDS011;14857;41.200;-8.326;2022-08-19T09:51:12;3.45;;;0.70;;
18144;SDS011;14857;41.200;-8.326;2022-08-19T09:53:50;1.05;;;0.90;;
18144;SDS011;14857;41.200;-8.326;2022-08-19T09:56:22;2.78;;;1.35;;
18144;SDS011;14857;41.200;-8.326;2022-08-19T09:58:58;1.80;;;0.95;;
18144;SDS011;14857;41.200;-8.326;2022-08-19T10:01:34;1.50;;;0.90;;
18144;SDS011;14857;41.200;-8.326;2022-08-19T10:04:09;1.38;;;0.77;;
18144;SDS011;14857;41.200;-8.326;2022-08-19T10:06:55;4.80;;;1.85;;
18144;SDS011;14857;41.200;-8.326;2022-08-19T10:09:25;1.92;;;1.27;;
18144;SDS011;14857;41.200;-8.326;2022-08-19T10:12:01;3.20;;;1.00;;
18144;SDS011;14857;41.200;-8.326;2022-08-19T10:14:32;1.52;;;1.00;;
18144;SDS011;14857;41.200;-8.326;2022-08-19T10:17:01;3.05;;;1.05;;
18144;SDS011;14857;41.200;-8.326;2022-08-19T10:19:48;1.45;;;0.90;;
18144;SDS011;14857;41.200;-8.326;2022-08-19T10:22:21;2.50;;;1.27;;
18144;SDS011;14857;41.200;-8.326;2022-08-19T10:24:52;1.52;;;0.90;;
18144;SDS011;14857;41.200;-8.326;2022-08-19T10:27:21;3.53;;;0.65;;
18144;SDS011;14857;41.200;-8.326;2022-08-19T10:29:52;1.15;;;0.60;;
18144;SDS011;14857;41.200;-8.326;2022-08-19T10:32:24;0.95;;;0.77;;
18144;SDS011;14857;41.200;-8.326;2022-08-19T10:35:04;1.45;;;0.60;;
18144;SDS011;14857;41.200;-8.326;2022-08-19T10:37:36;1.42;;;0.85;;
18144;SDS011;14857;41.200;-8.326;2022-08-19T10:40:25;5.07;;;0.98;;
18144;SDS011;14857;41.200;-8.326;2022-08-19T10:42:55;1.63;;;0.93;;
18144;SDS011;14857;41.200;-8.326;2022-08-19T10:45:28;2.75;;;1.02;;
18144;SDS011;14857;41.200;-8.326;2022-08-19T10:48:00;2.95;;;1.70;;
18144;SDS011;14857;41.200;-8.326;2022-08-19T10:50:39;2.55;;;0.90;;
18144;SDS011;14857;41.200;-8.326;2022-08-19T10:53:25;5.88;;;0.95;;
18144;SDS011;14857;41.200;-8.326;2022-08-19T10:55:54;1.48;;;0.52;;
18144;SDS011;14857;41.200;-8.326;2022-08-19T10:58:41;3.60;;;0.52;;
18144;SDS011;14857;41.200;-8.326;2022-08-19T11:01:11;4.65;;;0.73;;
18144;SDS011;14857;41.200;-8.326;2022-08-19T11:03:40;1.65;;;0.90;;
18144;SDS011;14857;41.200;-8.326;2022-08-19T11:06:19;4.45;;;1.15;;
18144;SDS011;14857;41.200;-8.326;2022-08-19T11:08:48;2.10;;;0.90;;
18144;SDS011;14857;41.200;-8.326;2022-08-19T11:11:17;2.47;;;0.68;;
18144;SDS011;14857;41.200;-8.326;2022-08-19T11:13:46;0.70;;;0.50;;
18144;SDS011;14857;41.200;-8.326;2022-08-19T11:16:17;1.05;;;0.73;;
18144;SDS011;14857;41.200;-8.326;2022-08-19T11:18:48;1.83;;;0.98;;
18144;SDS011;14857;41.200;-8.326;2022-08-19T11:21:21;4.55;;;1.00;;
18144;SDS011;14857;41.200;-8.326;2022-08-19T11:23:53;4.50;;;1.30;;
18144;SDS011;14857;41.200;-8.326;2022-08-19T11:26:23;2.08;;;0.90;;
18144;SDS011;14857;41.200;-8.326;2022-08-19T11:28:52;2.38;;;1.38;;
18144;SDS011;14857;41.200;-8.326;2022-08-19T11:31:23;1.25;;;0.77;;
18144;SDS011;14857;41.200;-8.326;2022-08-19T11:33:55;1.80;;;0.73;;
18144;SDS011;14857;41.200;-8.326;2022-08-19T11:36:28;2.22;;;0.80;;
18144;SDS011;14857;41.200;-8.326;2022-08-19T11:38:58;2.85;;;1.27;;
18144;SDS011;14857;41.200;-8.326;2022-08-19T11:41:26;0.90;;;0.70;;
18144;SDS011;14857;41.200;-8.326;2022-08-19T11:43:55;1.08;;;0.68;;
18144;SDS011;14857;41.200;-8.326;2022-08-19T11:46:25;1.25;;;0.80;;
18144;SDS011;14857;41.200;-8.326;2022-08-19T11:48:56;1.35;;;0.65;;
18144;SDS011;14857;41.200;-8.326;2022-08-19T11:51:30;1.17;;;0.63;;
18144;SDS011;14857;41.200;-8.326;2022-08-19T11:54:31;1.75;;;0.80;;
18144;SDS011;14857;41.200;-8.326;2022-08-19T11:57:01;1.05;;;0.70;;
18144;SDS011;14857;41.200;-8.326;2022-08-19T11:59:31;1.17;;;0.65;;
18144;SDS011;14857;41.200;-8.326;2022-08-19T12:01:59;2.38;;;0.68;;
18144;SDS011;14857;41.200;-8.326;2022-08-19T12:04:28;5.15;;;0.80;;
18144;SDS011;14857;41.200;-8.326;2022-08-19T12:06:58;3.20;;;1.05;;
18144;SDS011;14857;41.200;-8.326;2022-08-19T12:09:38;5.93;;;1.13;;
18144;SDS011;14857;41.200;-8.326;2022-08-19T12:12:43;2.22;;;1.02;;
18144;SDS011;14857;41.200;-8.326;2022-08-19T12:15:34;4.43;;;0.88;;
18144;SDS011;14857;41.200;-8.326;2022-08-19T12:18:04;3.28;;;0.85;;
18144;SDS011;14857;41.200;-8.326;2022-08-19T12:20:34;1.10;;;0.60;;
18144;SDS011;14857;41.200;-8.326;2022-08-19T12:23:05;0.75;;;0.68;;
18144;SDS011;14857;41.200;-8.326;2022-08-19T12:25:36;1.88;;;0.80;;
18144;SDS011;14857;41.200;-8.326;2022-08-19T12:28:05;1.90;;;0.90;;
18144;SDS011;14857;41.200;-8.326;2022-08-19T12:30:36;1.02;;;0.57;;
18144;SDS011;14857;41.200;-8.326;2022-08-19T12:33:05;1.17;;;0.73;;
18144;SDS011;14857;41.200;-8.326;2022-08-19T12:35:34;0.98;;;0.70;;
18144;SDS011;14857;41.200;-8.326;2022-08-19T12:38:04;2.10;;;0.73;;
18144;SDS011;14857;41.200;-8.326;2022-08-19T12:40:33;0.88;;;0.80;;
18144;SDS011;14857;41.200;-8.326;2022-08-19T12:43:02;2.35;;;0.57;;
18144;SDS011;14857;41.200;-8.326;2022-08-19T12:45:33;0.82;;;0.73;;
18144;SDS011;14857;41.200;-8.326;2022-08-19T12:48:03;2.03;;;0.90;;
18144;SDS011;14857;41.200;-8.326;2022-08-19T12:50:52;4.45;;;0.85;;
18144;SDS011;14857;41.200;-8.326;2022-08-19T12:53:23;3.17;;;1.20;;
18144;SDS011;14857;41.200;-8.326;2022-08-19T12:58:49;1.98;;;0.90;;
18144;SDS011;14857;41.200;-8.326;2022-08-19T13:01:20;2.38;;;0.90;;
18144;SDS011;14857;41.200;-8.326;2022-08-19T13:03:49;2.17;;;0.75;;
18144;SDS011;14857;41.200;-8.326;2022-08-19T13:06:21;0.90;;;0.70;;
18144;SDS011;14857;41.200;-8.326;2022-08-19T13:09:19;1.98;;;0.85;;
18144;SDS011;14857;41.200;-8.326;2022-08-19T13:12:19;1.15;;;0.88;;
18144;SDS011;14857;41.200;-8.326;2022-08-19T13:14:51;0.70;;;0.60;;
18144;SDS011;14857;41.200;-8.326;2022-08-19T13:17:19;1.30;;;0.77;;
18144;SDS011;14857;41.200;-8.326;2022-08-19T13:19:49;1.35;;;0.70;;
18144;SDS011;14857;41.200;-8.326;2022-08-19T13:22:18;4.25;;;0.80;;
18144;SDS011;14857;41.200;-8.326;2022-08-19T13:24:49;2.88;;;0.88;;
18144;SDS011;14857;41.200;-8.326;2022-08-19T13:27:18;0.60;;;0.50;;
18144;SDS011;14857;41.200;-8.326;2022-08-19T13:29:47;0.80;;;0.68;;
18144;SDS011;14857;41.200;-8.326;2022-08-19T13:32:38;1.65;;;0.93;;
18144;SDS011;14857;41.200;-8.326;2022-08-19T13:35:24;0.98;;;0.80;;
18144;SDS011;14857;41.200;-8.326;2022-08-19T13:37:53;0.80;;;0.60;;
18144;SDS011;14857;41.200;-8.326;2022-08-19T13:40:24;2.15;;;0.65;;
18144;SDS011;14857;41.200;-8.326;2022-08-19T13:42:54;2.40;;;0.88;;
18144;SDS011;14857;41.200;-8.326;2022-08-19T13:45:23;3.05;;;0.73;;
18144;SDS011;14857;41.200;-8.326;2022-08-19T13:47:53;1.67;;;0.60;;
18144;SDS011;14857;41.200;-8.326;2022-08-19T13:50:27;2.45;;;0.90;;
18144;SDS011;14857;41.200;-8.326;2022-08-19T13:52:58;2.33;;;0.88;;
18144;SDS011;14857;41.200;-8.326;2022-08-19T13:55:29;2.22;;;0.85;;
18144;SDS011;14857;41.200;-8.326;2022-08-19T13:57:59;1.08;;;0.70;;
18144;SDS011;14857;41.200;-8.326;2022-08-19T14:00:29;0.70;;;0.60;;
18144;SDS011;14857;41.200;-8.326;2022-08-19T14:03:01;1.25;;;0.70;;
18144;SDS011;14857;41.200;-8.326;2022-08-19T14:05:35;5.07;;;0.65;;
18144;SDS011;14857;41.200;-8.326;2022-08-19T14:08:04;3.55;;;0.60;;
18144;SDS011;14857;41.200;-8.326;2022-08-19T14:10:34;2.83;;;0.95;;
18144;SDS011;14857;41.200;-8.326;2022-08-19T14:13:03;3.10;;;1.70;;
18144;SDS011;14857;41.200;-8.326;2022-08-19T14:15:32;6.65;;;1.00;;
18144;SDS011;14857;41.200;-8.326;2022-08-19T14:18:01;1.30;;;0.60;;
18144;SDS011;14857;41.200;-8.326;2022-08-19T14:20:30;1.02;;;0.55;;
18144;SDS011;14857;41.200;-8.326;2022-08-19T14:23:01;1.33;;;0.60;;
18144;SDS011;14857;41.200;-8.326;2022-08-19T14:25:31;1.25;;;0.70;;
18144;SDS011;14857;41.200;-8.326;2022-08-19T14:28:02;0.98;;;0.70;;
18144;SDS011;14857;41.200;-8.326;2022-08-19T14:30:32;3.97;;;0.85;;
18144;SDS011;14857;41.200;-8.326;2022-08-19T14:33:04;2.30;;;0.70;;
18144;SDS011;14857;41.200;-8.326;2022-08-19T14:35:35;0.90;;;0.68;;
18144;SDS011;14857;41.200;-8.326;2022-08-19T14:38:05;2.10;;;0.70;;
18144;SDS011;14857;41.200;-8.326;2022-08-19T14:40:34;0.90;;;0.80;;
18144;SDS011;14857;41.200;-8.326;2022-08-19T14:43:05;1.10;;;0.47;;
18144;SDS011;14857;41.200;-8.326;2022-08-19T14:45:34;1.38;;;0.80;;
18144;SDS011;14857;41.200;-8.326;2022-08-19T14:48:07;1.45;;;0.90;;
18144;SDS011;14857;41.200;-8.326;2022-08-19T14:50:46;1.38;;;0.80;;
18144;SDS011;14857;41.200;-8.326;2022-08-19T14:53:15;2.90;;;0.90;;
18144;SDS011;14857;41.200;-8.326;2022-08-19T14:55:44;1.70;;;0.80;;
18144;SDS011;14857;41.200;-8.326;2022-08-19T14:58:15;1.02;;;0.80;;
18144;SDS011;14857;41.200;-8.326;2022-08-19T15:00:56;1.88;;;0.60;;
18144;SDS011;14857;41.200;-8.326;2022-08-19T15:03:28;1.60;;;0.82;;
18144;SDS011;14857;41.200;-8.326;2022-08-19T15:05:59;0.55;;;0.50;;
18144;SDS011;14857;41.200;-8.326;2022-08-19T15:08:29;0.60;;;0.52;;
18144;SDS011;14857;41.200;-8.326;2022-08-19T15:10:59;2.75;;;0.77;;
18144;SDS011;14857;41.200;-8.326;2022-08-19T15:13:30;0.50;;;0.50;;
18144;SDS011;14857;41.200;-8.326;2022-08-19T15:16:00;1.38;;;0.70;;